Time;durP1;ratioP1;P1;durP2;ratioP2;P2;SDS_P1;SDS_P2;PMS_P1;PMS_P2;Temp;Humidity;BMP_temperature;BMP_pressure;BME280_temperature;BME280_humidity;BME280_pressure;Samples;Min_cycle;Max_cycle;Signal;HPM_P1;HPM_P2
2021/10/16 00:01:40;;;;;;;8.27;2.85;;;;;;;11.81;76.96;102283.84;4939183;29;20047;-82
2021/10/16 00:04:06;;;;;;;11.02;3.22;;;;;;;11.83;77.25;102287.31;4956190;29;20030;-83
2021/10/16 00:06:31;;;;;;;13.40;3.85;;;;;;;11.88;77.54;102286.28;4971344;28;20023;-82
2021/10/16 00:08:57;;;;;;;13.73;5.53;;;;;;;11.82;77.25;102285.59;4978739;28;20091;-83
2021/10/16 00:11:22;;;;;;;9.55;3.25;;;;;;;11.83;77.20;102283.78;4962126;29;20035;-82
2021/10/16 00:13:48;;;;;;;8.48;3.03;;;;;;;11.84;77.22;102288.19;4976531;28;20110;-84
2021/10/16 00:16:13;;;;;;;13.20;3.65;;;;;;;11.81;77.23;102293.59;4957129;29;20027;-83
2021/10/16 00:18:38;;;;;;;9.48;3.55;;;;;;;11.75;78.36;102286.72;4955918;29;20036;-84
2021/10/16 00:21:04;;;;;;;10.43;3.28;;;;;;;11.75;78.58;102285.88;4956451;29;20035;-84
2021/10/16 00:23:29;;;;;;;14.95;3.47;;;;;;;11.75;78.75;102293.81;4938566;29;20030;-84
2021/10/16 00:28:39;;;;;;;12.57;3.38;;;;;;;11.75;77.48;102283.22;5020832;28;20058;-83
2021/10/16 00:31:04;;;;;;;9.30;3.53;;;;;;;11.80;77.14;102287.44;5020603;28;20056;-82
2021/10/16 00:33:29;;;;;;;15.05;2.83;;;;;;;11.87;75.64;102287.22;5021802;28;20034;-81
2021/10/16 00:35:55;;;;;;;14.88;3.47;;;;;;;11.89;74.55;102291.53;5021118;28;20018;-83
2021/10/16 00:38:20;;;;;;;9.15;2.75;;;;;;;11.92;74.18;102286.13;5001782;28;20033;-81
2021/10/16 00:40:46;;;;;;;9.35;2.80;;;;;;;11.98;73.15;102279.75;5020200;28;20033;-84
2021/10/16 00:43:11;;;;;;;13.20;3.05;;;;;;;11.99;73.17;102281.47;5027442;28;20042;-81
2021/10/16 00:45:36;;;;;;;8.82;3.38;;;;;;;11.99;73.17;102276.16;5038694;28;20033;-79
2021/10/16 00:48:02;;;;;;;10.00;3.47;;;;;;;12.03;73.27;102280.47;5036921;28;20090;-81
2021/10/16 00:50:28;;;;;;;11.88;3.33;;;;;;;11.95;73.82;102279.84;5002178;28;20034;-79
2021/10/16 00:52:53;;;;;;;12.98;2.95;;;;;;;12.07;73.62;102271.50;5017830;28;20049;-81
2021/10/16 00:55:19;;;;;;;9.30;2.97;;;;;;;12.05;73.61;102270.63;5034307;28;20033;-80
2021/10/16 00:57:45;;;;;;;9.60;3.17;;;;;;;12.05;73.23;102265.34;5034637;28;20041;-79
2021/10/16 01:00:11;;;;;;;10.77;3.10;;;;;;;12.06;73.57;102268.88;5033969;28;20025;-82
2021/10/16 01:02:37;;;;;;;7.15;2.78;;;;;;;12.03;73.23;102268.97;5024231;28;20018;-79
2021/10/16 01:05:04;;;;;;;10.80;3.33;;;;;;;12.03;72.94;102267.19;5018877;28;20033;-79
2021/10/16 01:07:29;;;;;;;10.40;2.95;;;;;;;11.92;72.26;102264.91;5018182;28;20064;-80
2021/10/16 01:09:55;;;;;;;12.93;3.65;;;;;;;12.07;71.90;102282.09;5016584;28;20038;-82
2021/10/16 01:12:20;;;;;;;12.82;3.65;;;;;;;12.02;71.29;102277.88;5016121;28;20395;-81
2021/10/16 01:15:02;;;;;;;13.77;3.72;;;;;;;12.15;71.29;102275.63;5016514;28;20034;-80
2021/10/16 01:17:32;;;;;;;9.68;3.45;;;;;;;12.16;71.09;102262.31;5016207;28;20038;-80
2021/10/16 01:20:03;;;;;;;8.55;3.00;;;;;;;12.16;70.90;102266.78;5015715;28;20045;-80
2021/10/16 01:22:30;;;;;;;13.15;3.60;;;;;;;12.18;71.41;102278.19;5016411;28;20072;-82
2021/10/16 01:24:56;;;;;;;13.13;3.75;;;;;;;12.16;71.37;102267.63;5016289;28;20065;-80
2021/10/16 01:27:21;;;;;;;9.05;3.67;;;;;;;12.25;70.54;102268.22;5016381;28;20054;-80
2021/10/16 01:29:47;;;;;;;12.98;3.60;;;;;;;12.30;70.09;102271.56;4982558;28;20385;-80
2021/10/16 01:32:12;;;;;;;10.48;3.17;;;;;;;12.26;70.42;102269.94;4982396;28;20412;-81
2021/10/16 01:34:37;;;;;;;10.07;3.50;;;;;;;12.10;71.33;102269.66;5016755;28;20041;-80
2021/10/16 01:37:03;;;;;;;11.52;3.72;;;;;;;11.97;71.75;102270.03;5015788;28;20038;-79
2021/10/16 01:39:29;;;;;;;14.68;3.88;;;;;;;11.99;72.91;102268.22;5016792;28;20022;-79
2021/10/16 01:41:55;;;;;;;9.73;3.40;;;;;;;11.91;73.56;102276.44;5019677;28;20053;-79
2021/10/16 01:44:20;;;;;;;13.82;3.78;;;;;;;11.81;73.99;102267.94;5020715;28;20528;-80
2021/10/16 01:46:46;;;;;;;11.18;3.50;;;;;;;11.69;74.70;102266.59;4986631;28;20030;-81
2021/10/16 01:49:13;;;;;;;11.27;3.67;;;;;;;11.64;75.31;102262.38;5024564;28;20022;-80
2021/10/16 01:51:38;;;;;;;10.63;3.33;;;;;;;11.55;74.58;102259.13;5018360;28;20473;-81
2021/10/16 01:54:04;;;;;;;11.02;3.53;;;;;;;11.53;74.50;102263.59;5023036;28;20112;-80
2021/10/16 01:56:29;;;;;;;10.15;3.33;;;;;;;11.52;74.36;102261.88;5008752;28;20042;-80
2021/10/16 01:58:55;;;;;;;12.25;3.65;;;;;;;11.45;75.57;102255.91;5016335;28;20060;-80
2021/10/16 02:01:20;;;;;;;14.02;3.80;;;;;;;11.51;75.51;102270.75;5016081;28;20030;-80
2021/10/16 02:03:46;;;;;;;12.10;3.58;;;;;;;11.58;74.43;102260.78;5016384;28;20022;-80
2021/10/16 02:06:11;;;;;;;13.35;3.38;;;;;;;11.56;74.71;102262.66;5015932;28;20559;-81
2021/10/16 02:08:38;;;;;;;10.80;3.08;;;;;;;11.58;74.68;102259.03;5028092;28;20045;-80
2021/10/16 02:11:04;;;;;;;10.02;3.30;;;;;;;11.61;74.22;102260.69;5019498;28;20488;-81
2021/10/16 02:13:29;;;;;;;7.18;3.70;;;;;;;11.62;75.21;102258.91;5017576;28;20112;-81
2021/10/16 02:15:55;;;;;;;11.73;3.50;;;;;;;11.63;75.93;102258.88;5018809;28;20487;-82
2021/10/16 02:18:20;;;;;;;13.07;3.13;;;;;;;11.63;76.02;102250.91;5018101;28;20029;-80
2021/10/16 02:20:46;;;;;;;9.93;3.08;;;;;;;11.63;75.24;102253.56;5018990;28;20030;-83
2021/10/16 02:23:11;;;;;;;9.00;3.08;;;;;;;11.65;75.48;102249.09;5019998;28;20034;-81
2021/10/16 02:25:36;;;;;;;9.02;2.83;;;;;;;11.66;75.68;102249.94;5020372;28;20036;-80
2021/10/16 02:28:02;;;;;;;19.83;5.78;;;;;;;11.64;75.18;102246.50;5020576;28;20041;-80
2021/10/16 02:30:27;;;;;;;7.22;3.05;;;;;;;11.68;74.93;102243.69;5019888;28;20034;-80
2021/10/16 02:32:53;;;;;;;11.32;3.50;;;;;;;11.74;74.25;102250.53;5015726;28;20064;-80
2021/10/16 02:35:18;;;;;;;13.63;3.45;;;;;;;11.69;74.70;102244.53;5014396;28;20357;-80
2021/10/16 02:37:44;;;;;;;14.20;2.95;;;;;;;11.65;74.45;102241.13;5014353;28;20022;-80
2021/10/16 02:40:10;;;;;;;10.57;3.50;;;;;;;11.71;74.70;102245.34;5014241;28;20393;-80
2021/10/16 02:42:35;;;;;;;10.45;2.70;;;;;;;11.59;74.99;102249.31;5014310;28;20152;-81
2021/10/16 02:45:01;;;;;;;12.45;3.22;;;;;;;11.62;74.49;102245.66;5013973;28;20053;-81
2021/10/16 02:47:30;;;;;;;7.90;2.90;;;;;;;11.56;73.88;102241.47;5014126;28;20504;-80
2021/10/16 02:49:59;;;;;;;9.65;2.80;;;;;;;11.63;73.59;102245.63;5013709;28;20022;-79
2021/10/16 02:52:25;;;;;;;13.73;2.72;;;;;;;11.65;73.67;102250.88;5013995;28;20058;-80
2021/10/16 02:54:50;;;;;;;12.55;2.95;;;;;;;11.72;73.66;102249.72;5013828;28;20068;-81
2021/10/16 02:57:16;;;;;;;10.73;3.08;;;;;;;11.67;74.00;102249.88;5013804;28;20046;-80
2021/10/16 02:59:41;;;;;;;13.60;3.33;;;;;;;11.66;74.28;102250.81;5014133;28;20034;-80
2021/10/16 03:02:06;;;;;;;5.53;2.30;;;;;;;11.67;74.21;102243.75;5013926;28;20034;-79
2021/10/16 03:04:32;;;;;;;10.30;3.30;;;;;;;11.72;73.55;102244.41;5015622;28;20033;-79
2021/10/16 03:06:57;;;;;;;9.13;2.75;;;;;;;11.73;73.90;102256.78;5021865;28;20030;-80
2021/10/16 03:09:23;;;;;;;12.30;2.90;;;;;;;11.71;73.91;102259.47;5027509;28;20028;-80
2021/10/16 03:11:48;;;;;;;9.68;2.60;;;;;;;11.72;73.66;102260.31;5006571;28;20029;-80
2021/10/16 03:14:14;;;;;;;9.20;3.03;;;;;;;11.69;73.88;102253.34;4986507;28;20018;-81
2021/10/16 03:16:39;;;;;;;6.10;2.40;;;;;;;11.74;73.16;102250.53;5013807;28;20381;-80
2021/10/16 03:19:04;;;;;;;10.43;2.55;;;;;;;11.78;73.32;102262.75;5013748;28;20464;-81
2021/10/16 03:21:30;;;;;;;12.45;2.95;;;;;;;11.73;73.14;102256.78;5013626;28;20030;-79
2021/10/16 03:23:55;;;;;;;9.85;2.95;;;;;;;11.65;73.48;102251.75;5013553;28;20026;-80
2021/10/16 03:26:21;;;;;;;6.57;2.80;;;;;;;11.72;73.27;102247.06;5013103;28;20033;-80
2021/10/16 03:28:46;;;;;;;11.80;4.15;;;;;;;11.77;73.39;102249.56;5013249;28;20033;-81
2021/10/16 03:31:12;;;;;;;12.57;3.22;;;;;;;11.73;73.62;102243.53;5013247;28;20397;-81
2021/10/16 03:33:37;;;;;;;8.90;2.88;;;;;;;11.69;74.38;102250.69;5013289;28;20053;-81
2021/10/16 03:36:03;;;;;;;8.90;3.10;;;;;;;11.65;74.64;102245.56;5013236;28;20037;-80
2021/10/16 03:38:28;;;;;;;10.15;3.15;;;;;;;11.58;74.71;102244.91;5013060;28;20022;-82
2021/10/16 03:40:53;;;;;;;10.52;3.25;;;;;;;11.51;75.25;102238.09;5013146;28;20380;-81
2021/10/16 03:43:19;;;;;;;11.73;2.53;;;;;;;11.42;75.64;102240.13;5013144;28;20105;-81
2021/10/16 03:45:44;;;;;;;13.23;3.22;;;;;;;11.41;76.05;102243.72;5012879;28;20044;-81
2021/10/16 03:48:10;;;;;;;11.93;2.60;;;;;;;11.35;76.51;102246.56;5013081;28;20030;-80
2021/10/16 03:50:35;;;;;;;9.50;3.17;;;;;;;11.28;77.41;102243.25;5013050;28;20037;-78
2021/10/16 03:53:01;;;;;;;8.02;3.00;;;;;;;11.23;78.12;102241.69;5012978;28;20041;-81
2021/10/16 03:55:26;;;;;;;11.95;3.25;;;;;;;11.22;78.03;102243.47;5012954;28;20069;-81
2021/10/16 03:57:53;;;;;;;6.40;3.05;;;;;;;11.18;77.96;102245.34;5013039;28;20026;-79
2021/10/16 04:00:21;;;;;;;9.65;3.42;;;;;;;11.13;78.92;102239.34;5013110;28;20029;-81
2021/10/16 04:02:49;;;;;;;10.68;3.83;;;;;;;11.12;78.97;102247.34;5013060;28;20026;-81
2021/10/16 04:05:14;;;;;;;11.50;2.88;;;;;;;11.07;78.92;102239.53;5012773;28;20026;-80
2021/10/16 04:07:40;;;;;;;13.80;3.72;;;;;;;10.97;79.84;102244.25;5012652;28;20028;-80
2021/10/16 04:10:06;;;;;;;9.80;3.28;;;;;;;10.95;79.51;102235.53;5012653;28;20022;-81
2021/10/16 04:12:31;;;;;;;12.23;3.22;;;;;;;10.94;79.36;102244.34;5012792;28;20029;-81
2021/10/16 04:14:57;;;;;;;9.38;3.42;;;;;;;10.87;79.75;102240.19;5012595;28;20040;-80
2021/10/16 04:17:22;;;;;;;8.93;3.38;;;;;;;10.78;80.73;102236.06;5012651;28;20026;-80
2021/10/16 04:19:48;;;;;;;8.18;3.25;;;;;;;10.74;80.79;102235.28;5012598;28;20036;-80
2021/10/16 04:22:13;;;;;;;12.15;3.75;;;;;;;10.68;81.24;102232.84;5012665;28;20030;-82
2021/10/16 04:24:39;;;;;;;12.63;3.67;;;;;;;10.69;81.00;102237.19;5012574;28;20030;-81
2021/10/16 04:27:04;;;;;;;10.85;3.40;;;;;;;10.72;80.98;102231.81;4998902;23;20066;-81
2021/10/16 04:29:29;;;;;;;8.23;3.17;;;;;;;10.71;81.53;102236.25;4954138;29;20090;-81
2021/10/16 04:31:55;;;;;;;9.93;3.22;;;;;;;10.66;81.98;102232.00;4937212;29;20035;-82
2021/10/16 04:34:20;;;;;;;14.68;3.80;;;;;;;10.74;82.18;102232.63;4937312;29;20031;-82
2021/10/16 04:36:46;;;;;;;10.88;3.20;;;;;;;10.74;81.90;102224.69;4954347;29;20383;-81
2021/10/16 04:39:11;;;;;;;16.00;4.15;;;;;;;10.78;81.91;102231.63;4954378;29;20449;-80
2021/10/16 04:41:37;;;;;;;11.70;3.63;;;;;;;10.83;81.58;102232.34;4954106;29;20034;-81
2021/10/16 04:44:04;;;;;;;13.38;4.07;;;;;;;10.88;81.74;102232.19;4954207;29;20034;-80
2021/10/16 04:46:29;;;;;;;9.43;3.80;;;;;;;10.90;81.48;102238.31;4954279;29;20055;-79
2021/10/16 04:48:55;;;;;;;11.38;3.55;;;;;;;10.94;81.45;102242.59;4954367;29;20359;-81
2021/10/16 04:51:20;;;;;;;7.47;3.30;;;;;;;10.98;81.58;102240.72;4937086;29;20398;-81
2021/10/16 04:53:46;;;;;;;11.52;3.95;;;;;;;11.00;82.03;102238.03;4954546;29;20027;-81
2021/10/16 04:56:11;;;;;;;9.02;3.38;;;;;;;11.02;81.70;102236.16;4955114;29;20027;-81
2021/10/16 04:58:36;;;;;;;9.95;3.83;;;;;;;11.04;81.68;102237.00;4955310;29;20106;-80
2021/10/16 05:01:02;;;;;;;10.05;3.83;;;;;;;11.04;81.85;102237.88;4954215;29;20042;-80
2021/10/16 05:03:27;;;;;;;7.68;2.97;;;;;;;11.07;81.92;102232.47;4954205;29;20031;-81
2021/10/16 05:05:53;;;;;;;14.50;3.65;;;;;;;11.09;82.17;102230.63;4955002;29;20043;-81
2021/10/16 05:08:18;;;;;;;8.30;3.95;;;;;;;11.14;81.97;102235.78;4954078;29;20035;-81
2021/10/16 05:10:44;;;;;;;11.02;3.90;;;;;;;11.15;81.75;102231.34;4954388;28;20038;-80
2021/10/16 05:13:09;;;;;;;10.13;3.60;;;;;;;11.17;81.56;102233.03;4957136;29;20131;-81
2021/10/16 05:15:35;;;;;;;13.63;4.03;;;;;;;11.12;81.68;102228.81;4957424;29;20032;-81
2021/10/16 05:18:00;;;;;;;10.85;4.25;;;;;;;11.16;81.70;102219.84;4957319;29;20077;-81
2021/10/16 05:20:26;;;;;;;13.63;4.10;;;;;;;11.19;81.59;102225.03;4957363;29;20050;-80
2021/10/16 05:22:51;;;;;;;14.10;4.65;;;;;;;11.19;81.91;102231.19;4957510;29;20027;-79
2021/10/16 05:25:17;;;;;;;13.60;4.40;;;;;;;11.17;82.54;102229.53;4960548;29;20032;-79
2021/10/16 05:27:42;;;;;;;11.55;4.53;;;;;;;11.24;82.72;102211.63;4958740;29;20097;-80
2021/10/16 05:30:08;;;;;;;11.65;4.38;;;;;;;11.26;82.80;102223.03;4957505;29;20435;-80
2021/10/16 05:32:34;;;;;;;14.82;4.82;;;;;;;11.21;82.94;102221.44;4957017;29;20027;-80
2021/10/16 05:34:59;;;;;;;10.35;4.40;;;;;;;11.24;83.20;102216.94;4957015;29;20039;-80
2021/10/16 05:37:25;;;;;;;11.65;4.90;;;;;;;11.26;83.15;102217.75;4957075;29;20023;-80
2021/10/16 05:39:50;;;;;;;11.38;3.97;;;;;;;11.29;82.95;102217.66;4956980;29;20035;-80
2021/10/16 05:42:15;;;;;;;17.50;5.22;;;;;;;11.34;82.78;102213.06;4957029;29;20031;-80
2021/10/16 05:44:41;;;;;;;9.75;4.43;;;;;;;11.34;82.93;102211.25;4956616;29;20038;-80
2021/10/16 05:47:06;;;;;;;9.43;4.25;;;;;;;11.31;83.00;102216.66;4939498;29;20023;-80
2021/10/16 05:49:32;;;;;;;11.00;4.50;;;;;;;11.30;83.18;102220.25;4956753;29;20039;-80
2021/10/16 05:51:57;;;;;;;13.80;4.10;;;;;;;11.23;83.51;102215.22;4956568;29;20471;-80
2021/10/16 05:54:23;;;;;;;19.38;4.60;;;;;;;11.25;83.37;102211.56;4956672;29;20070;-81
2021/10/16 05:56:48;;;;;;;7.93;3.80;;;;;;;11.29;83.20;102218.53;4956374;29;20368;-83
2021/10/16 05:59:14;;;;;;;12.43;4.40;;;;;;;11.33;82.93;102211.31;4956459;29;20475;-82
2021/10/16 06:01:39;;;;;;;11.63;4.45;;;;;;;11.36;82.94;102219.16;4956803;29;20035;-83
2021/10/16 06:04:04;;;;;;;16.00;4.53;;;;;;;11.41;82.23;102219.00;4956373;29;20331;-82
2021/10/16 06:06:30;;;;;;;9.48;4.40;;;;;;;11.38;82.25;102216.47;4956571;29;20387;-81
2021/10/16 06:08:55;;;;;;;16.50;4.97;;;;;;;11.34;81.99;102216.56;4956308;29;20034;-80
2021/10/16 06:11:21;;;;;;;12.85;5.00;;;;;;;11.43;81.72;102212.75;4956366;29;20034;-82
2021/10/16 06:13:46;;;;;;;11.60;4.68;;;;;;;11.47;81.47;102213.50;4956323;29;20031;-81
2021/10/16 06:16:12;;;;;;;13.10;4.68;;;;;;;11.51;81.20;102209.84;4956246;29;20027;-82
2021/10/16 06:18:40;;;;;;;14.23;4.53;;;;;;;11.53;81.06;102209.78;4956596;29;20027;-81
2021/10/16 06:21:05;;;;;;;11.32;4.30;;;;;;;11.55;80.52;102216.75;4956375;29;20035;-82
2021/10/16 06:23:31;;;;;;;14.45;4.47;;;;;;;11.55;80.03;102214.09;4966823;28;20034;-79
2021/10/16 06:25:56;;;;;;;9.73;4.22;;;;;;;11.57;79.68;102222.88;4968249;29;20031;-79
2021/10/16 06:28:21;;;;;;;14.88;4.47;;;;;;;11.64;79.29;102222.66;4966969;29;20074;-79
2021/10/16 06:30:47;;;;;;;10.52;4.75;;;;;;;11.67;79.21;102227.84;4956316;29;20050;-80
2021/10/16 06:33:12;;;;;;;15.25;3.75;;;;;;;11.49;79.30;102219.59;4956097;29;20031;-81
2021/10/16 06:35:38;;;;;;;10.00;4.15;;;;;;;11.70;78.79;102225.06;4956174;29;20032;-80
2021/10/16 06:38:03;;;;;;;11.68;4.05;;;;;;;11.69;78.75;102224.19;4955784;29;20031;-80
2021/10/16 06:40:29;;;;;;;11.15;3.85;;;;;;;11.71;78.32;102221.50;4955851;29;20104;-81
2021/10/16 06:42:55;;;;;;;14.25;4.05;;;;;;;11.75;77.94;102227.56;4955940;29;20042;-81
2021/10/16 06:45:20;;;;;;;12.98;4.60;;;;;;;11.74;77.31;102225.81;4955483;29;20489;-80
2021/10/16 06:47:46;;;;;;;14.38;4.10;;;;;;;11.83;78.14;102231.66;4955711;29;20386;-81
2021/10/16 06:50:11;;;;;;;15.57;3.85;;;;;;;11.81;77.91;102233.47;4955715;29;20038;-79
2021/10/16 06:52:36;;;;;;;11.80;4.25;;;;;;;11.89;77.77;102232.38;4955428;29;20043;-78
2021/10/16 06:55:02;;;;;;;12.63;4.18;;;;;;;11.87;77.88;102236.84;4938350;29;20043;-79
2021/10/16 06:57:28;;;;;;;16.27;4.40;;;;;;;11.95;77.63;102235.63;4955546;29;20035;-77
2021/10/16 06:59:53;;;;;;;12.82;3.90;;;;;;;11.95;77.86;102235.63;4955548;29;20067;-79
2021/10/16 07:02:19;;;;;;;10.27;3.63;;;;;;;11.88;77.78;102234.13;4955315;29;20050;-81
2021/10/16 07:04:44;;;;;;;15.35;4.15;;;;;;;12.00;77.74;102232.84;4953286;29;20023;-80
2021/10/16 07:07:09;;;;;;;13.10;4.45;;;;;;;11.90;78.39;102232.31;4955298;29;20031;-81
2021/10/16 07:09:35;;;;;;;21.52;5.30;;;;;;;11.82;78.71;102242.31;4954819;29;20031;-80
2021/10/16 07:12:00;;;;;;;9.82;3.53;;;;;;;11.80;79.20;102245.03;4954941;29;20035;-80
2021/10/16 07:14:26;;;;;;;12.35;3.83;;;;;;;11.75;79.04;102238.16;4955412;29;20058;-79
2021/10/16 07:16:51;;;;;;;17.60;3.55;;;;;;;11.65;79.25;102246.44;4954989;29;20023;-78
2021/10/16 07:19:17;;;;;;;12.48;3.35;;;;;;;11.90;78.70;102242.03;4954996;29;20057;-79
2021/10/16 07:21:42;;;;;;;10.88;3.97;;;;;;;11.95;77.90;102253.34;4937971;29;20035;-80
2021/10/16 07:24:08;;;;;;;12.68;3.92;;;;;;;11.97;77.15;102246.19;4954826;29;20027;-80
2021/10/16 07:26:33;;;;;;;10.50;3.47;;;;;;;12.06;76.62;102248.53;4954539;29;20035;-81
2021/10/16 07:28:59;;;;;;;7.80;3.90;;;;;;;12.10;75.59;102243.16;4954777;29;20047;-77
2021/10/16 07:31:26;;;;;;;17.50;4.50;;;;;;;12.10;75.76;102248.44;4937407;29;20102;-78
2021/10/16 07:33:52;;;;;;;13.30;3.25;;;;;;;12.04;74.83;102246.84;4954197;28;20027;-79
2021/10/16 07:36:17;;;;;;;11.32;3.55;;;;;;;11.91;74.78;102243.75;4954988;29;20402;-78
2021/10/16 07:38:43;;;;;;;12.38;4.00;;;;;;;12.04;74.52;102246.84;4954915;29;20364;-79
2021/10/16 07:41:08;;;;;;;10.52;3.20;;;;;;;12.20;74.13;102250.69;4954490;29;20434;-76
2021/10/16 07:43:33;;;;;;;15.13;3.70;;;;;;;12.13;74.31;102248.34;4954397;29;20382;-78
2021/10/16 07:45:59;;;;;;;11.27;3.65;;;;;;;12.24;74.36;102261.19;4955018;29;20474;-79
2021/10/16 07:48:24;;;;;;;10.20;3.97;;;;;;;12.07;74.66;102255.59;4954084;29;20035;-80
2021/10/16 07:50:52;;;;;;;10.52;4.43;;;;;;;12.30;73.69;102251.19;4937247;29;20035;-79
2021/10/16 07:53:17;;;;;;;11.23;3.90;;;;;;;12.31;73.83;102252.94;4954732;29;20191;-78
2021/10/16 07:55:42;;;;;;;10.40;4.35;;;;;;;12.24;74.79;102256.72;4937334;29;20035;-79
2021/10/16 07:58:09;;;;;;;9.50;3.40;;;;;;;12.27;74.73;102251.31;4954124;29;20066;-78
2021/10/16 08:00:34;;;;;;;12.95;3.60;;;;;;;12.33;74.30;102253.72;4955051;29;20035;-79
2021/10/16 08:03:00;;;;;;;12.80;4.88;;;;;;;12.38;74.31;102261.50;4953499;29;20081;-79
2021/10/16 08:05:25;;;;;;;11.95;4.70;;;;;;;12.41;74.00;102258.75;4953848;28;20055;-80
2021/10/16 08:07:52;;;;;;;10.77;4.20;;;;;;;12.46;73.68;102251.47;4954539;29;20037;-79
2021/10/16 08:10:17;;;;;;;14.05;3.97;;;;;;;12.50;73.55;102256.66;4954241;29;20466;-80
2021/10/16 08:12:43;;;;;;;12.70;4.47;;;;;;;12.57;73.49;102255.50;4954245;29;20137;-80
2021/10/16 08:15:09;;;;;;;11.00;4.07;;;;;;;12.61;73.17;102259.78;4936993;29;20020;-79
2021/10/16 08:17:34;;;;;;;12.48;4.07;;;;;;;12.69;72.89;102254.19;4954219;29;20059;-79
2021/10/16 08:20:00;;;;;;;11.32;4.18;;;;;;;12.66;72.39;102262.25;4954108;29;20027;-80
2021/10/16 08:22:25;;;;;;;13.93;4.55;;;;;;;12.76;72.47;102260.97;4954108;29;20442;-81
2021/10/16 08:24:51;;;;;;;10.63;4.45;;;;;;;12.66;72.65;102262.25;4954069;29;20023;-79
2021/10/16 08:27:17;;;;;;;9.25;4.03;;;;;;;12.83;71.75;102272.22;4984174;23;20046;-79
2021/10/16 08:29:42;;;;;;;9.07;3.92;;;;;;;12.80;72.79;102270.53;4974010;28;20038;-78
2021/10/16 08:32:07;;;;;;;14.20;4.40;;;;;;;12.89;71.88;102271.97;5012332;28;20029;-79
2021/10/16 08:34:33;;;;;;;11.05;4.00;;;;;;;13.00;71.78;102270.66;5012096;28;20361;-80
2021/10/16 08:36:59;;;;;;;14.27;4.65;;;;;;;12.94;71.84;102279.75;5012250;28;20421;-80
2021/10/16 08:39:26;;;;;;;12.68;4.22;;;;;;;12.81;72.81;102274.06;5012684;28;20029;-79
2021/10/16 08:41:51;;;;;;;9.23;3.83;;;;;;;12.80;73.05;102281.13;5012438;28;20464;-79
2021/10/16 08:44:17;;;;;;;12.82;3.95;;;;;;;13.02;72.46;102282.94;5012376;28;20030;-79
2021/10/16 08:46:43;;;;;;;9.23;3.88;;;;;;;13.05;72.80;102276.66;4979816;28;20030;-80
2021/10/16 08:49:11;;;;;;;12.73;4.45;;;;;;;13.26;72.30;102285.53;5016492;28;20077;-79
2021/10/16 08:51:38;;;;;;;9.10;3.60;;;;;;;13.29;72.09;102280.09;4998481;28;20029;-79
2021/10/16 08:54:03;;;;;;;13.48;4.40;;;;;;;13.40;71.97;102276.97;5015996;28;20022;-79
2021/10/16 08:56:29;;;;;;;12.60;4.25;;;;;;;13.30;70.99;102278.31;5015897;28;20045;-79
2021/10/16 08:58:54;;;;;;;9.75;4.22;;;;;;;13.63;69.96;102274.31;5016310;28;20026;-80
2021/10/16 09:01:19;;;;;;;10.43;4.40;;;;;;;13.73;69.53;102278.28;5015551;28;20025;-81
2021/10/16 09:03:51;;;;;;;11.98;4.22;;;;;;;13.70;69.44;102278.41;5015463;28;20049;-81
2021/10/16 09:06:25;;;;;;;10.32;3.65;;;;;;;13.94;68.78;102276.50;5016014;28;20108;-79
2021/10/16 09:09:09;;;;;;;12.20;4.18;;;;;;;13.90;67.73;102279.34;5015705;28;20105;-81
2021/10/16 09:11:35;;;;;;;16.05;4.55;;;;;;;13.72;68.43;102281.00;5015641;28;20192;-80
2021/10/16 09:14:08;;;;;;;10.80;3.88;;;;;;;13.73;67.37;102280.09;5015560;28;20041;-81
2021/10/16 09:16:34;;;;;;;;;;;;;;;13.92;68.45;102275.69;5015079;28;20366;-80
2021/10/16 09:19:18;;;;;;;9.80;3.88;;;;;;;13.89;68.04;102282.94;5015675;28;19913;-80
2021/10/16 09:21:50;;;;;;;14.32;4.18;;;;;;;14.15;67.55;102275.59;5015672;28;20101;-80
2021/10/16 09:24:39;;;;;;;12.63;3.80;;;;;;;14.28;66.68;102283.88;4998442;28;20076;-80
2021/10/16 09:27:15;;;;;;;9.82;3.47;;;;;;;14.47;65.45;102280.34;4916148;29;20407;-81
2021/10/16 09:29:45;;;;;;;9.05;3.33;;;;;;;14.42;65.01;102275.25;4916636;29;20656;-81
2021/10/16 09:32:12;;;;;;;9.93;3.28;;;;;;;14.67;64.34;102282.09;4916566;29;20051;-80
2021/10/16 09:34:47;;;;;;;11.73;3.80;;;;;;;14.61;63.98;102279.69;4916307;29;20102;-80
2021/10/16 09:37:16;;;;;;;8.88;3.08;;;;;;;14.41;63.63;102276.19;4916537;29;20032;-81
2021/10/16 09:39:48;;;;;;;7.00;2.90;;;;;;;14.85;63.01;102279.50;4916403;29;20115;-79
2021/10/16 09:42:36;;;;;;;11.23;3.07;;;;;;;14.43;64.75;102277.00;4916502;29;20475;-79
2021/10/16 09:45:06;;;;;;;9.43;3.25;;;;;;;14.56;64.66;102283.44;4916329;29;20518;-79
2021/10/16 09:47:31;;;;;;;10.15;2.97;;;;;;;14.58;64.45;102275.38;4916376;29;20044;-80
2021/10/16 09:49:59;;;;;;;13.93;3.35;;;;;;;14.81;64.11;102278.81;4900818;29;20036;-80
2021/10/16 09:52:41;;;;;;;6.15;2.88;;;;;;;14.28;64.96;102279.41;4916299;29;20414;-79
2021/10/16 09:55:08;;;;;;;11.75;2.88;;;;;;;14.63;64.91;102284.03;4916338;29;20066;-79
2021/10/16 09:57:33;;;;;;;9.77;2.85;;;;;;;14.77;64.20;102277.19;4916053;29;20114;-80
2021/10/16 09:59:59;;;;;;;11.15;3.03;;;;;;;14.34;65.97;102278.25;4916151;29;20130;-78
2021/10/16 10:02:28;;;;;;;6.07;2.80;;;;;;;14.52;64.40;102281.00;4916319;29;20431;-81
2021/10/16 10:04:54;;;;;;;10.50;2.72;;;;;;;14.76;64.40;102288.78;4969899;28;20064;-79
2021/10/16 10:07:20;;;;;;;7.90;2.72;;;;;;;14.83;63.61;102279.56;4980998;28;20465;-80
2021/10/16 10:09:45;;;;;;;9.43;3.40;;;;;;;14.74;63.87;102280.88;5014681;28;20032;-79
2021/10/16 10:12:14;;;;;;;7.65;2.63;;;;;;;14.24;64.88;102283.16;5014617;28;20425;-80
2021/10/16 10:14:47;;;;;;;10.38;2.72;;;;;;;14.05;65.52;102286.66;4996891;28;20049;-79
2021/10/16 10:17:13;;;;;;;;;;;;;;;14.27;65.31;102287.47;5014739;28;20022;-80
2021/10/16 10:19:43;;;;;;;12.00;2.80;;;;;;;14.56;64.50;102280.78;5014376;28;19924;-80
2021/10/16 10:22:13;;;;;;;12.85;3.95;;;;;;;14.62;64.23;102284.09;4996829;28;20063;-81
2021/10/16 10:24:41;;;;;;;9.70;3.10;;;;;;;14.39;65.44;102278.91;5014213;28;20535;-81
2021/10/16 10:27:07;;;;;;;9.70;3.17;;;;;;;14.59;64.39;102282.44;5014024;28;20101;-82
2021/10/16 10:29:35;;;;;;;9.48;3.35;;;;;;;14.59;64.40;102274.44;5014012;28;20034;-79
2021/10/16 10:32:03;;;;;;;11.40;3.00;;;;;;;14.67;64.12;102277.63;4996530;28;20030;-80
2021/10/16 10:34:33;;;;;;;12.63;2.92;;;;;;;15.06;63.89;102274.94;5012843;28;20073;-82
2021/10/16 10:37:09;;;;;;;7.25;2.90;;;;;;;15.07;63.56;102280.19;5014243;28;20044;-80
2021/10/16 10:39:35;;;;;;;9.07;2.90;;;;;;;15.31;62.51;102271.91;5014312;28;20029;-80
2021/10/16 10:42:13;;;;;;;8.43;2.80;;;;;;;15.35;62.13;102271.75;5014307;28;20057;-82
2021/10/16 10:44:42;;;;;;;7.13;2.78;;;;;;;15.47;62.37;102272.94;4996847;28;20455;-79
2021/10/16 10:47:19;;;;;;;13.50;2.72;;;;;;;15.66;60.44;102273.72;5013934;28;20072;-78
2021/10/16 10:49:45;;;;;;;14.10;2.90;;;;;;;15.53;60.30;102273.47;5013888;28;20108;-80
2021/10/16 10:52:11;;;;;;;11.45;2.47;;;;;;;15.82;58.99;102260.44;5013669;28;20528;-82
2021/10/16 10:54:37;;;;;;;8.45;1.98;;;;;;;15.49;58.75;102263.91;5013895;28;20032;-81
2021/10/16 10:57:03;;;;;;;8.80;2.28;;;;;;;15.53;58.50;102264.63;4996393;28;20460;-79
2021/10/16 10:59:28;;;;;;;7.35;2.05;;;;;;;15.23;57.73;102265.25;5013667;28;20041;-78
2021/10/16 11:01:59;;;;;;;7.18;2.00;;;;;;;15.34;57.80;102267.38;4980013;28;20406;-80
2021/10/16 11:04:34;;;;;;;4.35;1.90;;;;;;;15.40;57.83;102261.72;5013212;28;20030;-79
2021/10/16 11:07:02;;;;;;;8.77;2.30;;;;;;;15.80;57.37;102259.66;5013735;28;20060;-79
2021/10/16 11:09:27;;;;;;;7.75;2.08;;;;;;;15.76;56.30;102255.44;5013113;28;20365;-79
2021/10/16 11:11:53;;;;;;;5.82;2.10;;;;;;;15.35;56.15;102267.28;5013700;28;20026;-81
2021/10/16 11:14:18;;;;;;;8.68;2.22;;;;;;;15.60;55.37;102247.38;5021093;28;20576;-79
2021/10/16 11:16:53;;;;;;;7.65;1.88;;;;;;;15.87;55.21;102251.31;5019666;28;20034;-79
2021/10/16 11:19:19;;;;;;;8.52;2.28;;;;;;;15.74;55.87;102259.09;5018398;28;20113;-80